Time;durP1;ratioP1;P1;durP2;ratioP2;P2;SDS_P1;SDS_P2;PMS_P1;PMS_P2;Temp;Humidity;BMP_temperature;BMP_pressure;BME280_temperature;BME280_humidity;BME280_pressure;Samples;Min_cycle;Max_cycle;Signal;HPM_P1;HPM_P2
2024/01/18 00:00:33;;;;;;;57.03;37.20;;;;;;;;;;5057252;28;20490;-88
2024/01/18 00:03:00;;;;;;;52.72;35.20;;;;;;;;;;5057689;28;20027;-89
2024/01/18 00:05:26;;;;;;;56.92;36.17;;;;;;;;;;5074344;28;20115;-89
2024/01/18 00:07:51;;;;;;;73.82;44.72;;;;;;;;;;5082912;28;20062;-88
2024/01/18 00:10:17;;;;;;;82.38;50.38;;;;;;;;;;5050158;28;20597;-88
2024/01/18 00:12:43;;;;;;;82.78;48.53;;;;;;;;;;5055325;28;20535;-88
2024/01/18 00:15:08;;;;;;;68.57;41.97;;;;;;;;;;5061238;28;20024;-88
2024/01/18 00:17:34;;;;;;;72.35;42.35;;;;;;;;;;5094470;28;20052;-89
2024/01/18 00:19:59;;;;;;;65.28;41.20;;;;;;;;;;5093913;28;20047;-88
2024/01/18 00:22:27;;;;;;;60.38;38.65;;;;;;;;;;5055787;28;20120;-88
2024/01/18 00:24:52;;;;;;;57.83;36.13;;;;;;;;;;5059131;28;20031;-89
2024/01/18 00:27:18;;;;;;;72.15;42.65;;;;;;;;;;5069223;28;20111;-89
2024/01/18 00:29:44;;;;;;;55.85;36.63;;;;;;;;;;5054740;28;20036;-88
2024/01/18 00:32:10;;;;;;;59.30;38.13;;;;;;;;;;5074472;28;20016;-87
2024/01/18 00:34:35;;;;;;;96.78;52.40;;;;;;;;;;5056435;28;20020;-88
2024/01/18 00:37:01;;;;;;;64.50;42.15;;;;;;;;;;5076003;28;20157;-87
2024/01/18 00:39:27;;;;;;;72.57;47.58;;;;;;;;;;5077391;28;20035;-89
2024/01/18 00:41:52;;;;;;;90.40;58.05;;;;;;;;;;5062947;28;20028;-89
2024/01/18 00:44:17;;;;;;;61.40;39.53;;;;;;;;;;5056915;28;20031;-90
2024/01/18 00:46:43;;;;;;;67.40;45.10;;;;;;;;;;5087582;28;20104;-89
2024/01/18 00:49:08;;;;;;;77.47;49.05;;;;;;;;;;5063772;28;20389;-90
2024/01/18 00:51:34;;;;;;;148.35;77.03;;;;;;;;;;5069693;28;20028;-89
2024/01/18 00:53:59;;;;;;;117.80;65.35;;;;;;;;;;5055931;28;20467;-89
2024/01/18 00:56:27;;;;;;;100.28;62.40;;;;;;;;;;5056192;28;20033;-89
2024/01/18 00:58:52;;;;;;;102.10;63.88;;;;;;;;;;5072314;28;20024;-89
2024/01/18 01:01:18;;;;;;;138.05;78.07;;;;;;;;;;5058001;28;20017;-89
2024/01/18 01:03:43;;;;;;;105.05;62.10;;;;;;;;;;5072621;28;20263;-89
2024/01/18 01:06:10;;;;;;;100.38;59.58;;;;;;;;;;5076019;28;20459;-89
2024/01/18 01:08:35;;;;;;;95.28;55.97;;;;;;;;;;5076064;28;20024;-89
2024/01/18 01:11:03;;;;;;;88.00;55.15;;;;;;;;;;5068273;28;20035;-89
2024/01/18 01:13:28;;;;;;;93.43;54.72;;;;;;;;;;5055798;28;20039;-89
2024/01/18 01:15:53;;;;;;;93.13;56.60;;;;;;;;;;5062412;28;20064;-89
2024/01/18 01:18:19;;;;;;;93.15;55.92;;;;;;;;;;5076543;28;20032;-89
2024/01/18 01:20:44;;;;;;;100.55;62.53;;;;;;;;;;5076135;28;20024;-89
2024/01/18 01:23:09;;;;;;;96.63;59.70;;;;;;;;;;5057929;28;20141;-88
2024/01/18 01:25:35;;;;;;;109.53;71.15;;;;;;;;;;5056206;28;20024;-89
2024/01/18 01:28:00;;;;;;;88.43;57.30;;;;;;;;;;5067174;28;20604;-89
2024/01/18 01:30:27;;;;;;;89.15;56.63;;;;;;;;;;5077591;28;20117;-88
2024/01/18 01:32:53;;;;;;;100.75;63.13;;;;;;;;;;5100115;28;20016;-87
2024/01/18 01:35:18;;;;;;;98.05;59.72;;;;;;;;;;5099540;28;20008;-87
2024/01/18 01:37:47;;;;;;;103.13;61.83;;;;;;;;;;5099276;28;20026;-88
2024/01/18 01:40:12;;;;;;;101.28;62.80;;;;;;;;;;5082090;28;20024;-88
2024/01/18 01:42:38;;;;;;;110.70;67.60;;;;;;;;;;5081876;28;20052;-88
2024/01/18 01:45:04;;;;;;;109.35;64.95;;;;;;;;;;5061128;28;20082;-90
2024/01/18 01:47:29;;;;;;;107.55;65.43;;;;;;;;;;5074564;28;20024;-89
2024/01/18 01:49:55;;;;;;;111.38;62.92;;;;;;;;;;5078133;28;20012;-89
2024/01/18 01:52:21;;;;;;;76.53;47.03;;;;;;;;;;5078734;28;20571;-88
2024/01/18 01:54:46;;;;;;;80.13;47.10;;;;;;;;;;5082838;28;20020;-88
2024/01/18 01:57:12;;;;;;;83.07;45.10;;;;;;;;;;5080110;28;20050;-88
2024/01/18 01:59:38;;;;;;;64.57;41.63;;;;;;;;;;5099175;28;20095;-89
2024/01/18 02:02:03;;;;;;;73.60;45.28;;;;;;;;;;5100065;28;20016;-88
2024/01/18 02:04:29;;;;;;;63.97;43.03;;;;;;;;;;5082252;28;20647;-88
2024/01/18 02:06:57;;;;;;;68.63;43.03;;;;;;;;;;5100222;28;20022;-89
2024/01/18 02:09:23;;;;;;;70.57;42.10;;;;;;;;;;5076248;28;20028;-89
2024/01/18 02:11:49;;;;;;;66.82;42.58;;;;;;;;;;5074807;28;20601;-89
2024/01/18 02:14:15;;;;;;;63.28;40.63;;;;;;;;;;5071631;28;20036;-89
2024/01/18 02:16:40;;;;;;;61.65;39.15;;;;;;;;;;5072870;28;20048;-88
2024/01/18 02:19:07;;;;;;;59.47;38.78;;;;;;;;;;5056398;28;20084;-90
2024/01/18 02:21:34;;;;;;;72.13;40.53;;;;;;;;;;5054450;28;20040;-90
2024/01/18 02:24:13;;;;;;;63.35;38.03;;;;;;;;;;5051214;28;20418;-89
2024/01/18 02:26:38;;;;;;;;;;;;;;;;;;5054653;28;20020;-89
2024/01/18 02:29:04;;;;;;;70.88;41.70;;;;;;;;;;5057625;28;19904;-88
2024/01/18 02:31:29;;;;;;;61.47;39.50;;;;;;;;;;5059112;28;20058;-89
2024/01/18 02:33:55;;;;;;;67.75;41.95;;;;;;;;;;5057970;28;20020;-90
2024/01/18 02:36:20;;;;;;;60.08;38.13;;;;;;;;;;5058462;28;20027;-87
2024/01/18 02:38:46;;;;;;;53.75;36.20;;;;;;;;;;5037883;28;20021;-89
2024/01/18 02:41:12;;;;;;;62.80;39.38;;;;;;;;;;5038545;28;20455;-87
2024/01/18 02:43:37;;;;;;;66.00;39.88;;;;;;;;;;5066871;28;20017;-87
2024/01/18 02:46:03;;;;;;;62.55;38.53;;;;;;;;;;5056974;28;20024;-89
2024/01/18 02:48:28;;;;;;;59.95;37.75;;;;;;;;;;5067147;28;20021;-89
2024/01/18 02:50:56;;;;;;;64.45;39.58;;;;;;;;;;5079192;28;20512;-89
2024/01/18 02:53:21;;;;;;;70.82;42.35;;;;;;;;;;5080061;28;20072;-89
2024/01/18 02:55:49;;;;;;;81.10;47.40;;;;;;;;;;5090114;28;20013;-89
2024/01/18 02:58:14;;;;;;;85.68;47.60;;;;;;;;;;5070231;28;20008;-89
2024/01/18 03:00:39;;;;;;;67.70;42.97;;;;;;;;;;5078794;28;20027;-89
2024/01/18 03:03:05;;;;;;;66.75;41.65;;;;;;;;;;5068947;28;20050;-88
2024/01/18 03:05:34;;;;;;;78.85;45.45;;;;;;;;;;5058660;28;20339;-89
2024/01/18 03:07:59;;;;;;;67.15;39.88;;;;;;;;;;5068734;28;20016;-89
2024/01/18 03:10:25;;;;;;;97.93;54.28;;;;;;;;;;5063312;28;20440;-89
2024/01/18 03:12:50;;;;;;;66.43;39.35;;;;;;;;;;5066623;28;20016;-87
2024/01/18 03:15:15;;;;;;;59.80;37.95;;;;;;;;;;5078757;28;20036;-89
2024/01/18 03:17:41;;;;;;;55.58;36.55;;;;;;;;;;5077620;28;20052;-89
2024/01/18 03:20:07;;;;;;;54.25;34.92;;;;;;;;;;5077477;28;20028;-89
2024/01/18 03:22:34;;;;;;;65.15;41.65;;;;;;;;;;5090432;28;20016;-88
2024/01/18 03:25:00;;;;;;;60.33;38.10;;;;;;;;;;5056800;28;20030;-89
2024/01/18 03:27:25;;;;;;;61.70;38.17;;;;;;;;;;5074624;28;20052;-89
2024/01/18 03:29:51;;;;;;;61.85;38.75;;;;;;;;;;5066065;28;20028;-89
2024/01/18 03:32:16;;;;;;;69.70;42.40;;;;;;;;;;5075656;28;20020;-88
2024/01/18 03:34:41;;;;;;;72.78;44.95;;;;;;;;;;5079442;28;20028;-89
2024/01/18 03:37:07;;;;;;;68.78;44.15;;;;;;;;;;5083280;28;20038;-89
2024/01/18 03:39:38;;;;;;;76.20;44.17;;;;;;;;;;5054052;28;20020;-90
2024/01/18 03:42:03;;;;;;;80.57;50.28;;;;;;;;;;5070580;28;20071;-89
2024/01/18 03:44:29;;;;;;;88.10;50.50;;;;;;;;;;5066257;28;20020;-90
2024/01/18 03:46:54;;;;;;;104.95;62.33;;;;;;;;;;5068262;28;20027;-89
2024/01/18 03:49:20;;;;;;;106.95;62.63;;;;;;;;;;5056678;28;20009;-90
2024/01/18 03:51:46;;;;;;;95.05;56.63;;;;;;;;;;5053797;28;20021;-89
2024/01/18 03:54:11;;;;;;;87.35;54.03;;;;;;;;;;5066482;28;20016;-90
2024/01/18 03:56:37;;;;;;;85.75;49.80;;;;;;;;;;5071704;28;20633;-88
2024/01/18 03:59:02;;;;;;;76.00;46.65;;;;;;;;;;5067993;28;20073;-90
2024/01/18 04:01:34;;;;;;;86.38;52.33;;;;;;;;;;5073048;28;20686;-90
2024/01/18 04:04:00;;;;;;;106.57;60.28;;;;;;;;;;5061181;28;20077;-90
2024/01/18 04:06:25;;;;;;;105.35;58.22;;;;;;;;;;5059572;28;20016;-90
2024/01/18 04:08:50;;;;;;;89.72;53.25;;;;;;;;;;5072937;28;20462;-89
2024/01/18 04:11:16;;;;;;;92.47;53.50;;;;;;;;;;5056018;28;20103;-90
2024/01/18 04:13:41;;;;;;;97.82;60.25;;;;;;;;;;5054533;28;20586;-89
2024/01/18 04:16:08;;;;;;;86.05;52.67;;;;;;;;;;5054359;28;20040;-90
2024/01/18 04:18:33;;;;;;;93.20;54.00;;;;;;;;;;5054949;28;20036;-89
2024/01/18 04:20:58;;;;;;;94.25;54.40;;;;;;;;;;5055433;28;20019;-89
2024/01/18 04:23:25;;;;;;;87.85;54.95;;;;;;;;;;5055410;28;20020;-89
2024/01/18 04:25:54;;;;;;;90.32;54.15;;;;;;;;;;5071742;28;20026;-90
2024/01/18 04:28:19;;;;;;;80.20;48.63;;;;;;;;;;5034727;28;20037;-90
2024/01/18 04:30:48;;;;;;;80.47;49.10;;;;;;;;;;5061574;28;20579;-89
2024/01/18 04:33:13;;;;;;;91.10;56.22;;;;;;;;;;5071050;28;20497;-89
2024/01/18 04:35:40;;;;;;;67.85;42.08;;;;;;;;;;5072346;28;20036;-89
2024/01/18 04:38:06;;;;;;;68.63;43.13;;;;;;;;;;5079872;28;20087;-89
2024/01/18 04:40:33;;;;;;;70.35;44.95;;;;;;;;;;5073747;28;20073;-88
2024/01/18 04:42:58;;;;;;;69.38;43.45;;;;;;;;;;5091850;28;20051;-89
2024/01/18 04:45:24;;;;;;;66.50;40.33;;;;;;;;;;5072140;28;20481;-89
2024/01/18 04:47:51;;;;;;;71.07;42.05;;;;;;;;;;5071972;28;20016;-89
2024/01/18 04:50:18;;;;;;;72.22;41.85;;;;;;;;;;5056266;28;20040;-88
2024/01/18 04:52:44;;;;;;;70.40;43.10;;;;;;;;;;5050220;28;20027;-88
2024/01/18 04:55:09;;;;;;;68.78;40.75;;;;;;;;;;5062011;28;20008;-89
2024/01/18 04:57:37;;;;;;;71.10;43.60;;;;;;;;;;5066105;28;20016;-87
2024/01/18 05:00:09;;;;;;;68.97;41.60;;;;;;;;;;5062735;28;20123;-88
2024/01/18 05:02:35;;;;;;;66.22;38.45;;;;;;;;;;5073166;28;20020;-88
2024/01/18 05:05:00;;;;;;;67.25;41.65;;;;;;;;;;5066302;28;20743;-88
2024/01/18 05:07:27;;;;;;;66.63;41.22;;;;;;;;;;5072713;28;20065;-89
2024/01/18 05:09:52;;;;;;;68.07;40.42;;;;;;;;;;5066550;28;20111;-88
2024/01/18 05:12:17;;;;;;;69.82;41.70;;;;;;;;;;5074005;28;20113;-88
2024/01/18 05:14:45;;;;;;;67.43;40.70;;;;;;;;;;5082606;28;20012;-89
2024/01/18 05:17:11;;;;;;;69.10;43.45;;;;;;;;;;5072846;28;20075;-88
2024/01/18 05:19:37;;;;;;;69.85;41.78;;;;;;;;;;5064333;28;20625;-88
2024/01/18 05:22:03;;;;;;;67.82;42.05;;;;;;;;;;5052191;28;20074;-89
2024/01/18 05:24:28;;;;;;;73.20;46.92;;;;;;;;;;5048907;28;20025;-88
2024/01/18 05:26:53;;;;;;;71.35;44.38;;;;;;;;;;5050719;28;20475;-89
2024/01/18 05:29:19;;;;;;;82.70;47.10;;;;;;;;;;5060990;28;20017;-89
2024/01/18 05:31:45;;;;;;;75.18;45.83;;;;;;;;;;5046465;28;20021;-89
2024/01/18 05:34:11;;;;;;;81.60;46.85;;;;;;;;;;5047288;28;20589;-89
2024/01/18 05:36:36;;;;;;;77.93;47.45;;;;;;;;;;5065999;28;20048;-89
2024/01/18 05:39:03;;;;;;;80.72;48.63;;;;;;;;;;5068133;28;20153;-88
2024/01/18 05:41:28;;;;;;;86.05;54.05;;;;;;;;;;5070291;28;20027;-89
2024/01/18 05:43:53;;;;;;;134.77;75.35;;;;;;;;;;5070462;28;20017;-88
2024/01/18 05:46:19;;;;;;;136.90;71.82;;;;;;;;;;5052022;28;20021;-88
2024/01/18 05:48:44;;;;;;;84.57;48.88;;;;;;;;;;5062774;28;20012;-87
2024/01/18 05:51:09;;;;;;;91.97;54.30;;;;;;;;;;5042026;28;20086;-88
2024/01/18 05:53:35;;;;;;;79.10;48.17;;;;;;;;;;5050962;28;20021;-88
2024/01/18 05:56:00;;;;;;;72.22;45.13;;;;;;;;;;5049427;28;20066;-88
2024/01/18 05:58:26;;;;;;;72.63;44.72;;;;;;;;;;5051540;28;20043;-88
2024/01/18 06:00:52;;;;;;;74.43;47.30;;;;;;;;;;5058212;28;20024;-87
2024/01/18 06:03:17;;;;;;;92.97;54.92;;;;;;;;;;5029330;28;20583;-89
2024/01/18 06:05:42;;;;;;;67.40;41.42;;;;;;;;;;5041036;28;20641;-89
2024/01/18 06:08:09;;;;;;;72.72;43.08;;;;;;;;;;5055645;28;20335;-89
2024/01/18 06:10:34;;;;;;;88.28;51.53;;;;;;;;;;5059769;28;20051;-88
2024/01/18 06:12:59;;;;;;;101.75;59.78;;;;;;;;;;5048331;28;20613;-89
2024/01/18 06:15:25;;;;;;;111.47;62.33;;;;;;;;;;5048679;28;20032;-88
2024/01/18 06:17:50;;;;;;;106.10;59.33;;;;;;;;;;5049979;28;20047;-88
2024/01/18 06:20:15;;;;;;;70.80;42.67;;;;;;;;;;5062627;28;20597;-88
2024/01/18 06:22:40;;;;;;;101.15;55.70;;;;;;;;;;5030285;28;20108;-88
2024/01/18 06:25:06;;;;;;;119.70;68.25;;;;;;;;;;5062288;28;20047;-89
2024/01/18 06:27:33;;;;;;;86.72;48.13;;;;;;;;;;5032244;28;20439;-88
2024/01/18 06:29:58;;;;;;;78.63;45.63;;;;;;;;;;5032954;28;20045;-88
2024/01/18 06:32:25;;;;;;;64.00;40.80;;;;;;;;;;5052723;28;20576;-87
2024/01/18 06:34:50;;;;;;;64.30;38.50;;;;;;;;;;5048522;28;20029;-88
2024/01/18 06:37:16;;;;;;;64.78;40.83;;;;;;;;;;5047777;28;20053;-87
2024/01/18 06:39:41;;;;;;;84.13;49.05;;;;;;;;;;5028274;28;20083;-90
2024/01/18 06:42:07;;;;;;;79.93;48.28;;;;;;;;;;5030298;28;20025;-90
2024/01/18 06:44:33;;;;;;;74.68;44.13;;;;;;;;;;5050313;28;20037;-88
2024/01/18 06:47:00;;;;;;;81.03;48.58;;;;;;;;;;5068223;28;20020;-89
2024/01/18 06:49:25;;;;;;;85.13;51.35;;;;;;;;;;5052107;28;20029;-88
2024/01/18 06:51:51;;;;;;;84.93;54.72;;;;;;;;;;5049974;28;20467;-89
2024/01/18 06:54:21;;;;;;;91.00;53.70;;;;;;;;;;5062858;28;20081;-88
2024/01/18 06:56:52;;;;;;;77.57;47.92;;;;;;;;;;5065924;28;20115;-88
2024/01/18 06:59:17;;;;;;;81.75;51.20;;;;;;;;;;5070674;28;20044;-87
2024/01/18 07:01:43;;;;;;;62.45;41.08;;;;;;;;;;5070147;28;20457;-90
2024/01/18 07:04:08;;;;;;;65.68;44.42;;;;;;;;;;5070848;28;20016;-89
2024/01/18 07:06:33;;;;;;;58.80;34.78;;;;;;;;;;5069659;28;20031;-88
2024/01/18 07:08:59;;;;;;;64.82;38.80;;;;;;;;;;5069356;28;20020;-88
2024/01/18 07:11:24;;;;;;;83.15;47.85;;;;;;;;;;5062104;28;20478;-88
2024/01/18 07:13:49;;;;;;;85.43;51.60;;;;;;;;;;5051394;28;20120;-88
2024/01/18 07:16:15;;;;;;;93.30;55.90;;;;;;;;;;5055475;28;20044;-86
2024/01/18 07:18:40;;;;;;;105.00;67.43;;;;;;;;;;5052365;28;20087;-87
2024/01/18 07:21:05;;;;;;;65.70;41.50;;;;;;;;;;5046522;28;20021;-88
2024/01/18 07:23:31;;;;;;;63.67;40.42;;;;;;;;;;5039861;28;20021;-89
2024/01/18 07:25:59;;;;;;;56.60;34.72;;;;;;;;;;5043451;28;20120;-86
2024/01/18 07:28:24;;;;;;;68.45;43.78;;;;;;;;;;5049780;28;20628;-89
2024/01/18 07:30:49;;;;;;;74.15;47.03;;;;;;;;;;5038130;28;20028;-89
2024/01/18 07:33:16;;;;;;;80.95;47.00;;;;;;;;;;5038502;28;20074;-86
2024/01/18 07:35:42;;;;;;;102.80;58.90;;;;;;;;;;5036489;28;20029;-88
2024/01/18 07:38:07;;;;;;;131.45;67.32;;;;;;;;;;5035027;28;20120;-88
2024/01/18 07:40:33;;;;;;;71.53;47.05;;;;;;;;;;5042219;28;20028;-89
2024/01/18 07:42:58;;;;;;;69.13;42.88;;;;;;;;;;5036700;28;20029;-88
2024/01/18 07:45:23;;;;;;;84.82;51.42;;;;;;;;;;5034227;28;20227;-89
2024/01/18 07:47:49;;;;;;;81.70;48.80;;;;;;;;;;5058460;28;20029;-87
2024/01/18 07:50:15;;;;;;;81.07;50.83;;;;;;;;;;5045327;28;20051;-87
2024/01/18 07:52:40;;;;;;;96.30;58.17;;;;;;;;;;5057529;28;20025;-86
2024/01/18 07:55:07;;;;;;;122.38;68.25;;;;;;;;;;5064020;28;20104;-89
2024/01/18 07:57:32;;;;;;;83.50;49.90;;;;;;;;;;5054872;28;20028;-86
2024/01/18 07:59:57;;;;;;;95.65;57.45;;;;;;;;;;5044273;28;20029;-88
2024/01/18 08:02:23;;;;;;;89.65;50.65;;;;;;;;;;5057080;28;20111;-87
2024/01/18 08:04:48;;;;;;;100.68;56.47;;;;;;;;;;5048212;28;20044;-88
2024/01/18 08:07:15;;;;;;;114.22;66.90;;;;;;;;;;5059422;28;20071;-88
2024/01/18 08:09:40;;;;;;;90.78;53.45;;;;;;;;;;5048494;28;20134;-89
2024/01/18 08:12:06;;;;;;;93.97;56.88;;;;;;;;;;5053279;28;20062;-89
2024/01/18 08:14:32;;;;;;;84.47;50.50;;;;;;;;;;5065422;28;20470;-90
2024/01/18 08:16:57;;;;;;;71.55;45.08;;;;;;;;;;5068935;28;20094;-87
2024/01/18 08:19:22;;;;;;;86.05;52.92;;;;;;;;;;5067998;28;20033;-89
2024/01/18 08:21:48;;;;;;;75.57;47.55;;;;;;;;;;5051892;28;20043;-87
2024/01/18 08:24:13;;;;;;;69.55;44.85;;;;;;;;;;5073323;28;20085;-86
2024/01/18 08:26:43;;;;;;;66.88;41.65;;;;;;;;;;5067511;28;20017;-90
2024/01/18 08:29:09;;;;;;;57.50;34.28;;;;;;;;;;5081031;28;20047;-88
2024/01/18 08:31:34;;;;;;;62.53;38.83;;;;;;;;;;5042274;28;20064;-92
2024/01/18 08:33:59;;;;;;;62.75;39.22;;;;;;;;;;4997837;28;20030;-86
2024/01/18 08:36:25;;;;;;;49.42;31.90;;;;;;;;;;5022240;28;20104;-90
2024/01/18 08:38:54;;;;;;;58.70;38.17;;;;;;;;;;5058001;28;20025;-92
2024/01/18 08:41:20;;;;;;;55.95;37.25;;;;;;;;;;5058417;28;20093;-88
2024/01/18 08:43:47;;;;;;;56.70;36.60;;;;;;;;;;5021582;28;20172;-87
2024/01/18 08:46:12;;;;;;;61.17;40.58;;;;;;;;;;5025554;28;20044;-88
2024/01/18 08:48:37;;;;;;;64.90;42.58;;;;;;;;;;5027378;28;20029;-88
2024/01/18 08:51:04;;;;;;;59.70;37.88;;;;;;;;;;5027579;28;20205;-86
2024/01/18 08:53:30;;;;;;;52.75;35.20;;;;;;;;;;5016867;28;20049;-89
2024/01/18 08:55:56;;;;;;;55.67;35.50;;;;;;;;;;5004539;28;20492;-87
2024/01/18 08:58:21;;;;;;;44.63;30.88;;;;;;;;;;5028866;28;20033;-89
2024/01/18 09:00:50;;;;;;;61.20;39.45;;;;;;;;;;5006080;28;20575;-95
2024/01/18 09:03:15;;;;;;;55.67;36.15;;;;;;;;;;5037872;28;20032;-86
2024/01/18 09:05:41;;;;;;;56.67;38.42;;;;;;;;;;5050905;28;20028;-88
2024/01/18 09:08:07;;;;;;;59.90;38.20;;;;;;;;;;5051101;28;20085;-88
2024/01/18 09:10:32;;;;;;;56.53;38.70;;;;;;;;;;5049768;28;20477;-88
2024/01/18 09:12:57;;;;;;;52.38;35.03;;;;;;;;;;5052957;28;20067;-88
2024/01/18 09:15:24;;;;;;;48.88;34.65;;;;;;;;;;5044040;28;20029;-89
2024/01/18 09:17:50;;;;;;;55.45;39.00;;;;;;;;;;5068136;28;20084;-88
2024/01/18 09:20:17;;;;;;;43.70;31.95;;;;;;;;;;5048541;28;20055;-88
2024/01/18 09:22:42;;;;;;;35.45;26.15;;;;;;;;;;5071810;28;20222;-87
2024/01/18 09:25:07;;;;;;;36.20;25.55;;;;;;;;;;5049326;28;20035;-86
2024/01/18 09:27:32;;;;;;;31.85;23.38;;;;;;;;;;5051223;28;20028;-87
2024/01/18 09:29:58;;;;;;;31.52;24.42;;;;;;;;;;5063517;28;20021;-87
2024/01/18 09:32:25;;;;;;;30.42;23.13;;;;;;;;;;5057185;28;20493;-87
2024/01/18 09:34:50;;;;;;;25.92;21.15;;;;;;;;;;5062691;28;20492;-86
2024/01/18 09:37:19;;;;;;;27.77;22.05;;;;;;;;;;5056347;28;20130;-86
2024/01/18 09:39:45;;;;;;;;;;;;;;;;;;5073029;28;20025;-86
2024/01/18 09:42:16;;;;;;;27.27;21.20;;;;;;;;;;5059250;28;19994;-86
2024/01/18 09:44:46;;;;;;;28.45;21.88;;;;;;;;;;5035921;28;20013;-86
2024/01/18 09:47:12;;;;;;;38.92;27.65;;;;;;;;;;5037523;28;20075;-84
2024/01/18 09:49:39;;;;;;;30.73;22.65;;;;;;;;;;5056092;28;20017;-86
2024/01/18 09:52:33;;;;;;;40.85;30.77;;;;;;;;;;5049023;28;20017;-94
2024/01/18 09:54:58;;;;;;;33.72;23.10;;;;;;;;;;5047900;28;20020;-89
2024/01/18 09:57:30;;;;;;;34.70;25.38;;;;;;;;;;5047188;28;20031;-85
2024/01/18 09:59:57;;;;;;;28.23;22.10;;;;;;;;;;5055059;28;20051;-86
2024/01/18 10:02:23;;;;;;;47.72;33.05;;;;;;;;;;5071738;28;20047;-86
2024/01/18 10:04:49;;;;;;;35.33;25.13;;;;;;;;;;5059954;28;20612;-86
2024/01/18 10:07:14;;;;;;;38.00;26.80;;;;;;;;;;5078314;28;20055;-85
2024/01/18 10:09:40;;;;;;;40.28;30.15;;;;;;;;;;5079136;28;20020;-86
2024/01/18 10:12:05;;;;;;;35.45;25.50;;;;;;;;;;5056440;28;20167;-86
2024/01/18 10:14:44;;;;;;;40.35;27.35;;;;;;;;;;5047370;28;20013;-86
2024/01/18 10:17:29;;;;;;;29.55;23.27;;;;;;;;;;5033890;28;20754;-86
2024/01/18 10:22:58;;;;;;;27.85;21.00;;;;;;;;;;5035522;28;20038;-88
2024/01/18 10:25:25;;;;;;;24.75;19.15;;;;;;;;;;5009500;28;20499;-86
2024/01/18 10:27:52;;;;;;;25.17;19.10;;;;;;;;;;5024404;28;20033;-84
2024/01/18 10:30:18;;;;;;;26.02;18.77;;;;;;;;;;5031150;28;20037;-85
2024/01/18 10:32:45;;;;;;;24.45;18.08;;;;;;;;;;5005397;28;20030;-85
2024/01/18 10:35:37;;;;;;;25.38;19.02;;;;;;;;;;5011932;28;20034;-86
2024/01/18 10:38:04;;;;;;;29.55;20.17;;;;;;;;;;5005588;28;20033;-86
2024/01/18 10:40:33;;;;;;;24.95;18.42;;;;;;;;;;5058731;28;20217;-85
2024/01/18 10:42:59;;;;;;;28.95;21.42;;;;;;;;;;5032150;28;20025;-87
2024/01/18 10:45:27;;;;;;;30.05;24.20;;;;;;;;;;5030174;28;20136;-87
2024/01/18 10:47:54;;;;;;;67.15;40.83;;;;;;;;;;5012115;28;20072;-86
2024/01/18 10:50:19;;;;;;;46.75;32.97;;;;;;;;;;5013169;28;20026;-86
2024/01/18 10:52:45;;;;;;;43.67;29.33;;;;;;;;;;5029151;28;20128;-85
2024/01/18 10:55:12;;;;;;;33.38;25.00;;;;;;;;;;5016894;28;20034;-85
2024/01/18 10:57:37;;;;;;;38.38;27.80;;;;;;;;;;5001463;28;20025;-85
2024/01/18 11:00:08;;;;;;;29.05;22.00;;;;;;;;;;5022134;28;20067;-85
2024/01/18 11:02:40;;;;;;;45.33;30.75;;;;;;;;;;5048449;28;20036;-84
2024/01/18 11:05:09;;;;;;;28.30;21.10;;;;;;;;;;5059890;28;20039;-85
2024/01/18 11:07:38;;;;;;;33.10;22.88;;;;;;;;;;5046121;28;20024;-86
2024/01/18 11:10:06;;;;;;;29.93;22.07;;;;;;;;;;5063016;28;20621;-86
2024/01/18 11:12:32;;;;;;;34.08;22.17;;;;;;;;;;5063285;28;20413;-87
2024/01/18 11:15:00;;;;;;;31.15;22.42;;;;;;;;;;5062568;28;20012;-87
2024/01/18 11:17:26;;;;;;;29.95;21.60;;;;;;;;;;5059935;28;20040;-84
2024/01/18 11:19:55;;;;;;;30.80;22.90;;;;;;;;;;5053856;28;20029;-85
2024/01/18 11:22:24;;;;;;;31.50;20.88;;;;;;;;;;5045608;28;20024;-85
2024/01/18 11:24:50;;;;;;;35.85;25.80;;;;;;;;;;5065998;28;20118;-85
2024/01/18 11:27:22;;;;;;;34.80;25.85;;;;;;;;;;5063566;28;20107;-85
2024/01/18 11:29:49;;;;;;;41.42;30.35;;;;;;;;;;5078148;28;20042;-86
2024/01/18 11:32:14;;;;;;;37.13;27.23;;;;;;;;;;5068193;28;20095;-86
2024/01/18 11:34:40;;;;;;;46.60;31.20;;;;;;;;;;5059447;28;20250;-86
2024/01/18 11:37:11;;;;;;;38.90;25.13;;;;;;;;;;5051993;28;20044;-86
2024/01/18 11:39:52;;;;;;;40.15;28.10;;;;;;;;;;5064949;28;20016;-86
2024/01/18 11:42:22;;;;;;;33.65;24.88;;;;;;;;;;5074957;28;20023;-86
2024/01/18 11:44:53;;;;;;;41.53;29.17;;;;;;;;;;5075343;28;20031;-85
2024/01/18 11:47:19;;;;;;;77.53;47.17;;;;;;;;;;5056109;28;20699;-86
2024/01/18 11:49:45;;;;;;;65.07;41.38;;;;;;;;;;5069580;28;20576;-87
2024/01/18 11:52:12;;;;;;;59.20;36.25;;;;;;;;;;5036762;28;20104;-85
2024/01/18 11:54:37;;;;;;;38.42;27.88;;;;;;;;;;5065654;28;20770;-86
2024/01/18 11:57:12;;;;;;;53.40;34.63;;;;;;;;;;5065011;28;20025;-86
2024/01/18 11:59:39;;;;;;;43.63;32.28;;;;;;;;;;5038893;28;20029;-86
2024/01/18 12:02:04;;;;;;;44.83;32.10;;;;;;;;;;5030130;28;20051;-87
2024/01/18 12:04:30;;;;;;;45.13;30.15;;;;;;;;;;5036759;28;20028;-91
2024/01/18 12:06:55;;;;;;;47.85;34.15;;;;;;;;;;5051709;28;20020;-85
2024/01/18 12:09:21;;;;;;;52.10;37.00;;;;;;;;;;5060948;28;20020;-86
2024/01/18 12:11:50;;;;;;;36.60;26.60;;;;;;;;;;5048294;28;20111;-85
2024/01/18 12:14:15;;;;;;;;;;;;;;;;;;5065167;28;20028;-85
2024/01/18 12:16:41;;;;;;;44.40;31.60;;;;;;;;;;5057556;28;19900;-86
2024/01/18 12:19:08;;;;;;;44.22;30.70;;;;;;;;;;5068478;28;20041;-86
2024/01/18 12:21:33;;;;;;;41.95;31.55;;;;;;;;;;5055957;28;20021;-90
2024/01/18 12:23:59;;;;;;;46.25;32.55;;;;;;;;;;5053161;28;20544;-86
2024/01/18 12:26:24;;;;;;;42.22;28.38;;;;;;;;;;5067496;28;20786;-86
2024/01/18 12:28:51;;;;;;;40.72;27.80;;;;;;;;;;5049870;28;20032;-85
2024/01/18 12:31:16;;;;;;;45.45;33.08;;;;;;;;;;5056637;28;20031;-90
2024/01/18 12:33:42;;;;;;;46.42;31.20;;;;;;;;;;5036879;28;20033;-94
2024/01/18 12:36:07;;;;;;;52.05;35.38;;;;;;;;;;5047160;28;20048;-87
2024/01/18 12:38:33;;;;;;;50.00;35.33;;;;;;;;;;5030699;28;20044;-85
2024/01/18 12:40:58;;;;;;;55.88;37.55;;;;;;;;;;5043088;28;20017;-90
2024/01/18 12:43:23;;;;;;;55.58;39.45;;;;;;;;;;5021283;28;20052;-86
2024/01/18 12:45:49;;;;;;;44.38;31.90;;;;;;;;;;5047479;28;20028;-86
2024/01/18 12:48:15;;;;;;;49.67;35.60;;;;;;;;;;5029241;28;20036;-88
2024/01/18 12:50:40;;;;;;;61.55;42.58;;;;;;;;;;5033079;28;20017;-84
2024/01/18 12:53:07;;;;;;;61.95;40.17;;;;;;;;;;5029457;28;20503;-90
2024/01/18 12:55:32;;;;;;;69.25;44.78;;;;;;;;;;5040403;28;21453;-84
2024/01/18 12:57:58;;;;;;;73.55;46.42;;;;;;;;;;5031228;28;20017;-90
2024/01/18 13:00:23;;;;;;;73.63;48.40;;;;;;;;;;5043916;28;20751;-86
2024/01/18 13:02:52;;;;;;;80.72;52.90;;;;;;;;;;5048444;28;20700;-86
2024/01/18 13:05:17;;;;;;;67.80;46.47;;;;;;;;;;5070033;28;20059;-85
2024/01/18 13:07:44;;;;;;;64.63;41.30;;;;;;;;;;5082503;28;20281;-89
2024/01/18 13:10:11;;;;;;;70.00;45.92;;;;;;;;;;5095577;28;20041;-87
2024/01/18 13:12:37;;;;;;;84.45;54.88;;;;;;;;;;5063457;28;20013;-86
2024/01/18 13:15:04;;;;;;;53.83;37.83;;;;;;;;;;5064698;28;20028;-87
2024/01/18 13:17:29;;;;;;;63.45;45.85;;;;;;;;;;5062685;28;20621;-85
2024/01/18 13:19:56;;;;;;;60.10;40.08;;;;;;;;;;5044892;28;20027;-87
2024/01/18 13:22:21;;;;;;;69.43;46.78;;;;;;;;;;5062014;28;20032;-85
2024/01/18 13:24:47;;;;;;;69.22;46.35;;;;;;;;;;5067958;28;20016;-89
2024/01/18 13:27:12;;;;;;;85.88;52.72;;;;;;;;;;5056335;28;20123;-92
2024/01/18 13:29:38;;;;;;;113.88;73.20;;;;;;;;;;5054859;28;20021;-86
2024/01/18 13:32:03;;;;;;;108.22;65.25;;;;;;;;;;5073490;28;20029;-86
2024/01/18 13:34:30;;;;;;;95.47;58.83;;;;;;;;;;5066346;28;20021;-86
2024/01/18 13:36:56;;;;;;;55.22;38.88;;;;;;;;;;5052760;28;20023;-88
2024/01/18 13:39:22;;;;;;;80.63;52.70;;;;;;;;;;5050752;28;20016;-86
2024/01/18 13:41:47;;;;;;;98.82;65.72;;;;;;;;;;5051471;28;20067;-88
2024/01/18 13:44:13;;;;;;;70.20;43.63;;;;;;;;;;5052402;28;20028;-87
2024/01/18 13:46:38;;;;;;;71.25;44.38;;;;;;;;;;5071668;28;20069;-84
2024/01/18 13:49:05;;;;;;;83.88;51.70;;;;;;;;;;5062015;28;20024;-86
2024/01/18 13:51:31;;;;;;;79.47;51.40;;;;;;;;;;5069855;28;20016;-85
2024/01/18 13:53:56;;;;;;;64.28;43.40;;;;;;;;;;5067002;28;20009;-86
2024/01/18 13:56:23;;;;;;;57.53;37.88;;;;;;;;;;5055569;28;20056;-85
2024/01/18 13:58:49;;;;;;;57.60;40.80;;;;;;;;;;5050736;28;20032;-87
2024/01/18 14:01:14;;;;;;;70.25;46.90;;;;;;;;;;5059085;28;20019;-87
2024/01/18 14:03:44;;;;;;;106.07;73.45;;;;;;;;;;5073298;28;20036;-92
2024/01/18 14:06:09;;;;;;;131.25;89.05;;;;;;;;;;5049122;28;20020;-87
2024/01/18 14:08:34;;;;;;;106.28;74.18;;;;;;;;;;5047433;28;20033;-86
2024/01/18 14:11:00;;;;;;;144.50;101.55;;;;;;;;;;5059849;28;20059;-86
2024/01/18 14:13:25;;;;;;;84.25;56.40;;;;;;;;;;5037461;28;20017;-86